createdAt,value
2022-10-30T00:01:36.724Z,95762.94
2022-10-30T00:04:03.422Z,95766.66
2022-10-30T00:06:29.964Z,95757.22
2022-10-30T00:08:56.515Z,95760.84
2022-10-30T00:11:23.104Z,95766.94
2022-10-30T00:13:50.084Z,95761.88
2022-10-30T00:16:16.670Z,95764.28
2022-10-30T00:18:43.411Z,95780.28
2022-10-30T00:21:12.783Z,95771.19
2022-10-30T00:23:40.939Z,95782.22
2022-10-30T00:26:08.114Z,95776.72
2022-10-30T00:28:35.203Z,95780.66
2022-10-30T00:31:03.491Z,95773.16
2022-10-30T00:33:30.212Z,95775.97
2022-10-30T00:35:56.877Z,95772.56
2022-10-30T00:38:23.495Z,95768.31
2022-10-30T00:40:50.143Z,95778.34
2022-10-30T00:43:37.678Z,95771.47
2022-10-30T00:46:20.870Z,95770.84
2022-10-30T00:48:58.063Z,95767.91
2022-10-30T00:51:25.452Z,95764.06
2022-10-30T00:53:53.390Z,95774.34
2022-10-30T00:56:22.011Z,95762.13
2022-10-30T00:58:58.260Z,95760.59
2022-10-30T01:01:28.724Z,95751.25
2022-10-30T01:04:00.534Z,95758.63
2022-10-30T01:06:30.179Z,95744.38
2022-10-30T01:08:59.835Z,95748.88
2022-10-30T01:11:27.116Z,95745.50
2022-10-30T01:13:57.727Z,95738.78
2022-10-30T01:16:56.141Z,95740.75
2022-10-30T01:19:56.877Z,95734.28
2022-10-30T01:22:57.119Z,95731.56
2022-10-30T01:25:35.723Z,95730.47
2022-10-30T01:28:14.387Z,95729.56
2022-10-30T01:31:04.461Z,95733.03
2022-10-30T01:34:12.205Z,95739.13
2022-10-30T01:36:46.074Z,95733.44
2022-10-30T01:39:17.783Z,95727.72
2022-10-30T01:41:45.533Z,95731.28
2022-10-30T01:44:25.335Z,95729.84
2022-10-30T01:47:23.005Z,95725.75
2022-10-30T01:50:04.476Z,95723.28
2022-10-30T01:52:47.561Z,95731.56
2022-10-30T01:55:29.724Z,95721.97
2022-10-30T01:58:14.839Z,95722.31
2022-10-30T02:00:45.665Z,95715.00
2022-10-30T02:03:12.513Z,95734.19
2022-10-30T02:05:43.860Z,95727.31
2022-10-30T02:08:10.719Z,95720.00
2022-10-30T02:10:38.465Z,95718.25
2022-10-30T02:13:05.424Z,95714.38
2022-10-30T02:15:32.378Z,95717.88
2022-10-30T02:18:00.914Z,95708.97
2022-10-30T02:20:28.446Z,95715.97
2022-10-30T02:22:59.012Z,95709.59
2022-10-30T02:25:26.351Z,95671.63
2022-10-30T02:27:53.273Z,95701.53
2022-10-30T02:30:19.878Z,95705.22
2022-10-30T02:32:47.125Z,95700.84
2022-10-30T02:35:13.852Z,95698.59
2022-10-30T02:37:40.425Z,95703.47
2022-10-30T02:40:21.923Z,95705.31
2022-10-30T02:42:53.220Z,95706.34
2022-10-30T02:45:20.091Z,95698.31
2022-10-30T02:47:47.080Z,95704.41
2022-10-30T02:50:13.774Z,95703.03
2022-10-30T02:52:40.370Z,95706.44
2022-10-30T02:55:07.146Z,95719.63
2022-10-30T02:57:33.857Z,95716.34
2022-10-30T03:00:00.451Z,95712.63
2022-10-30T03:02:27.137Z,95719.47
2022-10-30T03:04:53.682Z,95715.03
2022-10-30T03:07:20.425Z,95727.13
2022-10-30T03:09:48.452Z,95719.06
2022-10-30T03:12:15.138Z,95720.75
2022-10-30T03:14:41.776Z,95716.34
2022-10-30T03:17:08.353Z,95698.16
2022-10-30T03:19:35.686Z,95722.53
2022-10-30T03:22:02.290Z,95721.44
2022-10-30T03:24:28.836Z,95714.16
2022-10-30T03:26:55.512Z,95725.25
2022-10-30T03:29:22.113Z,95717.28
2022-10-30T03:31:48.644Z,95733.38
2022-10-30T03:34:15.230Z,95743.09
2022-10-30T03:36:42.123Z,95738.38
2022-10-30T03:39:08.909Z,95731.41
2022-10-30T03:41:35.628Z,95720.97
2022-10-30T03:44:02.165Z,95724.06
2022-10-30T03:46:30.809Z,95721.09
2022-10-30T03:48:57.395Z,95717.63
2022-10-30T03:51:23.955Z,95712.47
2022-10-30T03:53:50.611Z,95729.09
2022-10-30T03:56:17.226Z,95720.16
2022-10-30T03:58:43.768Z,95711.78
2022-10-30T04:01:10.957Z,95689.41
2022-10-30T04:03:37.648Z,95711.84
2022-10-30T04:06:04.339Z,95714.94
2022-10-30T04:08:30.968Z,95715.44
2022-10-30T04:10:57.622Z,95718.69
2022-10-30T04:13:24.323Z,95713.66
2022-10-30T04:15:56.266Z,95713.00
2022-10-30T04:18:25.322Z,95718.59
2022-10-30T04:20:52.276Z,95706.31
2022-10-30T04:23:20.840Z,95703.34
2022-10-30T04:25:47.999Z,95718.03
2022-10-30T04:28:14.897Z,95719.19
2022-10-30T04:30:41.487Z,95711.06
2022-10-30T04:33:11.792Z,95722.22
2022-10-30T04:35:38.796Z,95712.19
2022-10-30T04:38:07.799Z,95711.72
2022-10-30T04:40:36.855Z,95714.84
2022-10-30T04:43:04.380Z,95708.69
2022-10-30T04:45:32.252Z,95706.34
2022-10-30T04:48:16.259Z,95719.50
2022-10-30T04:50:43.796Z,95727.63
2022-10-30T04:53:17.224Z,95724.19
2022-10-30T04:55:44.623Z,95717.69
2022-10-30T04:58:12.836Z,95716.53
2022-10-30T05:00:39.809Z,95714.28
2022-10-30T05:03:06.434Z,95721.94
2022-10-30T05:05:33.049Z,95721.06
2022-10-30T05:08:00.134Z,95715.31
2022-10-30T05:10:27.154Z,95721.78
2022-10-30T05:12:54.416Z,95738.06
2022-10-30T05:15:21.514Z,95733.56
2022-10-30T05:17:51.787Z,95725.03
2022-10-30T05:20:19.080Z,95739.63
2022-10-30T05:22:45.960Z,95744.25
2022-10-30T05:25:12.476Z,95742.44
2022-10-30T05:27:39.029Z,95737.53
2022-10-30T05:30:06.165Z,95725.19
2022-10-30T05:32:32.806Z,95738.31
2022-10-30T05:34:59.355Z,95734.44
2022-10-30T05:37:26.041Z,95743.38
2022-10-30T05:39:52.661Z,95737.53
2022-10-30T05:42:19.226Z,95712.66
2022-10-30T05:45:02.287Z,95737.91
2022-10-30T05:47:29.281Z,95737.50
2022-10-30T05:49:55.941Z,95744.66
2022-10-30T05:52:22.520Z,95732.84
2022-10-30T05:54:49.071Z,95746.22
2022-10-30T05:57:15.624Z,95754.41
2022-10-30T05:59:42.225Z,95743.50
2022-10-30T06:02:09.006Z,95733.31
2022-10-30T06:04:35.707Z,95726.63
2022-10-30T06:07:02.242Z,95735.47
2022-10-30T06:09:28.784Z,95744.94
2022-10-30T06:11:55.892Z,95740.69
2022-10-30T06:14:22.448Z,95742.41
2022-10-30T06:16:49.057Z,95734.41
2022-10-30T06:19:18.948Z,95741.03
2022-10-30T06:21:46.157Z,95735.91
2022-10-30T06:24:13.233Z,95741.16
2022-10-30T06:26:40.518Z,95746.69
2022-10-30T06:29:07.294Z,95731.66
2022-10-30T06:31:33.890Z,95742.31
2022-10-30T06:34:00.581Z,95743.72
2022-10-30T06:36:27.223Z,95749.34
2022-10-30T06:38:53.800Z,95735.97
2022-10-30T06:41:23.349Z,95734.41
2022-10-30T06:43:52.405Z,95741.78
2022-10-30T06:46:19.006Z,95750.38
2022-10-30T06:48:45.554Z,95758.34
2022-10-30T06:51:15.773Z,95752.63
2022-10-30T06:53:42.735Z,95744.75
2022-10-30T06:56:09.949Z,95746.16
2022-10-30T06:58:39.182Z,95749.22
2022-10-30T07:01:08.980Z,95743.13
2022-10-30T07:03:35.624Z,95748.44
2022-10-30T07:06:02.427Z,95750.28
2022-10-30T07:08:29.031Z,95745.72
2022-10-30T07:10:58.324Z,95748.72
2022-10-30T07:13:24.968Z,95742.63
2022-10-30T07:15:51.619Z,95740.75
2022-10-30T07:18:18.163Z,95743.72
2022-10-30T07:20:44.760Z,95742.28
2022-10-30T07:23:11.353Z,95721.94
2022-10-30T07:25:37.981Z,95722.69
2022-10-30T07:28:04.948Z,95734.63
2022-10-30T07:30:31.603Z,95726.22
2022-10-30T07:33:00.359Z,95720.53
2022-10-30T07:35:28.101Z,95725.28
2022-10-30T07:37:55.177Z,95728.56
2022-10-30T07:40:23.509Z,95726.13
2022-10-30T07:42:55.334Z,95717.81
2022-10-30T07:45:22.380Z,95717.19
2022-10-30T07:47:48.993Z,95714.19
2022-10-30T07:50:15.690Z,95711.91
2022-10-30T07:52:42.252Z,95711.75
2022-10-30T07:55:09.265Z,95703.53
2022-10-30T07:57:40.373Z,95702.78
2022-10-30T08:00:09.639Z,95700.03
2022-10-30T08:02:36.376Z,95697.56
2022-10-30T08:05:04.136Z,95691.78
2022-10-30T08:07:32.004Z,95688.69
2022-10-30T08:09:58.953Z,95679.47
2022-10-30T08:12:26.536Z,95678.97
2022-10-30T08:14:53.754Z,95682.16
2022-10-30T08:17:20.963Z,95688.06
2022-10-30T08:19:47.604Z,95679.22
2022-10-30T08:22:14.212Z,95659.88
2022-10-30T08:24:40.870Z,95683.19
2022-10-30T08:27:07.428Z,95685.50
2022-10-30T08:29:34.952Z,95678.06
2022-10-30T08:32:01.711Z,95668.63
2022-10-30T08:34:31.628Z,95681.72
2022-10-30T08:36:58.444Z,95674.88
2022-10-30T08:39:25.111Z,95671.19
2022-10-30T08:41:51.813Z,95667.59
2022-10-30T08:44:18.706Z,95684.75
2022-10-30T08:46:45.258Z,95676.81
2022-10-30T08:49:11.851Z,95677.00
2022-10-30T08:51:38.442Z,95675.13
2022-10-30T08:54:05.043Z,95679.66
2022-10-30T08:56:31.631Z,95677.78
2022-10-30T08:58:58.321Z,95674.34
2022-10-30T09:01:24.978Z,95682.75
2022-10-30T09:03:51.650Z,95652.03
2022-10-30T09:06:18.369Z,95635.72
2022-10-30T09:08:46.251Z,95661.06
2022-10-30T09:11:12.864Z,95660.25
2022-10-30T09:13:39.481Z,95642.25
2022-10-30T09:16:06.586Z,95651.06
2022-10-30T09:18:33.382Z,95652.91
2022-10-30T09:21:03.118Z,95651.91
2022-10-30T09:23:31.579Z,95645.47
2022-10-30T09:25:58.254Z,95657.00
2022-10-30T09:28:24.969Z,95653.19
2022-10-30T09:30:56.284Z,95641.75
2022-10-30T09:33:23.856Z,95638.56
2022-10-30T09:35:50.601Z,95643.03
2022-10-30T09:38:17.370Z,95636.00
2022-10-30T09:40:43.902Z,95636.47
2022-10-30T09:43:34.427Z,95623.09
2022-10-30T09:46:39.469Z,95608.34
2022-10-30T09:49:53.712Z,95613.59
2022-10-30T09:52:29.599Z,95617.53
2022-10-30T09:55:11.419Z,95617.28
2022-10-30T09:57:59.952Z,95609.78
2022-10-30T10:00:44.364Z,95607.56
2022-10-30T10:03:34.656Z,95592.72
2022-10-30T10:06:02.862Z,95585.66
2022-10-30T10:08:41.095Z,95572.41
2022-10-30T10:11:16.919Z,95582.66
2022-10-30T10:14:08.589Z,95578.22
2022-10-30T10:16:39.471Z,95573.28
2022-10-30T10:19:12.602Z,95571.28
2022-10-30T10:21:53.472Z,95568.50
2022-10-30T10:24:27.198Z,95571.50
2022-10-30T10:27:27.850Z,95569.44
2022-10-30T10:29:57.451Z,95556.78
2022-10-30T10:32:45.477Z,95556.97
2022-10-30T10:35:30.726Z,95543.72
2022-10-30T10:38:54.758Z,95534.66
2022-10-30T10:41:52.624Z,95536.06
2022-10-30T10:44:46.552Z,95538.41
2022-10-30T10:47:36.373Z,95529.94
2022-10-30T10:50:25.872Z,95520.16
2022-10-30T10:53:11.454Z,95504.91
2022-10-30T10:55:39.458Z,95505.00
2022-10-30T10:58:33.705Z,95509.22
2022-10-30T11:01:00.776Z,95511.69
2022-10-30T11:03:42.653Z,95501.06
2022-10-30T11:06:21.221Z,95504.75
2022-10-30T11:08:49.322Z,95497.06
2022-10-30T11:11:15.990Z,95490.19
2022-10-30T11:13:44.542Z,95485.13
2022-10-30T11:16:37.974Z,95481.81
2022-10-30T11:19:09.163Z,95476.53
2022-10-30T11:21:42.353Z,95462.84
2022-10-30T11:24:28.309Z,95473.59
2022-10-30T11:26:57.499Z,95461.66
2022-10-30T11:29:32.138Z,95464.94
2022-10-30T11:32:04.815Z,95449.13
2022-10-30T11:34:37.996Z,95453.19
2022-10-30T11:37:05.176Z,95458.28
2022-10-30T11:39:35.572Z,95457.53
2022-10-30T11:42:04.500Z,95453.97
2022-10-30T11:44:47.547Z,95454.16
2022-10-30T11:47:16.669Z,95446.09
2022-10-30T11:49:55.259Z,95446.44
2022-10-30T11:52:23.649Z,95453.06
2022-10-30T11:55:09.263Z,95448.41
2022-10-30T11:57:44.901Z,95430.97
2022-10-30T12:00:26.665Z,95442.47
2022-10-30T12:03:00.957Z,95432.50
2022-10-30T12:05:30.702Z,95432.50
2022-10-30T12:08:06.480Z,95443.44
2022-10-30T12:10:38.726Z,95434.31
2022-10-30T12:13:06.540Z,95425.66
2022-10-30T12:15:37.415Z,95426.63
2022-10-30T12:18:17.382Z,95420.31
2022-10-30T12:20:47.887Z,95416.56
2022-10-30T12:23:22.169Z,95411.97
2022-10-30T12:25:50.843Z,95412.50
2022-10-30T12:28:31.744Z,95407.28
2022-10-30T12:31:04.931Z,95403.06
2022-10-30T12:33:42.124Z,95407.03
2022-10-30T12:36:22.939Z,95389.47
2022-10-30T12:38:54.552Z,95410.03
2022-10-30T12:41:28.795Z,95399.59
2022-10-30T12:44:16.386Z,95385.97
2022-10-30T12:46:47.175Z,95392.16
2022-10-30T12:49:31.064Z,95390.97
2022-10-30T12:52:36.066Z,95385.94
2022-10-30T12:55:21.543Z,95389.00
2022-10-30T12:58:17.206Z,95382.41
2022-10-30T13:01:06.763Z,95384.91
2022-10-30T13:03:39.864Z,95369.97
2022-10-30T13:06:31.685Z,95383.50
2022-10-30T13:09:48.499Z,95369.44
2022-10-30T13:12:38.017Z,95368.09
2022-10-30T13:15:36.971Z,95377.84
2022-10-30T13:18:21.642Z,95377.25
2022-10-30T13:21:11.029Z,95373.41
2022-10-30T13:24:12.079Z,95367.22
2022-10-30T13:26:46.521Z,95376.78
2022-10-30T13:29:44.481Z,95368.44
2022-10-30T13:32:42.075Z,95376.59
2022-10-30T13:35:45.304Z,95369.34
2022-10-30T13:38:58.317Z,95379.94
2022-10-30T13:41:46.305Z,95375.31
2022-10-30T13:44:24.482Z,95381.16
2022-10-30T13:47:06.285Z,95375.00
2022-10-30T13:49:41.830Z,95388.34
2022-10-30T13:52:11.647Z,95379.22
2022-10-30T13:54:48.504Z,95386.47
2022-10-30T13:57:26.475Z,95371.41
2022-10-30T14:00:01.187Z,95374.25
2022-10-30T14:02:27.930Z,95384.97
2022-10-30T14:05:26.997Z,95378.69
2022-10-30T14:08:08.791Z,95387.47
2022-10-30T14:10:56.025Z,95379.72
2022-10-30T14:13:55.333Z,95379.38
2022-10-30T14:16:44.242Z,95380.19
2022-10-30T14:19:15.942Z,95373.53
2022-10-30T14:21:52.038Z,95378.03
2022-10-30T14:24:23.483Z,95380.13
2022-10-30T14:27:14.934Z,95378.28
2022-10-30T14:29:50.722Z,95364.88
2022-10-30T14:32:19.831Z,95376.94
2022-10-30T14:34:58.309Z,95370.19
2022-10-30T14:37:27.452Z,95373.19
2022-10-30T14:39:55.667Z,95379.06
2022-10-30T14:42:30.726Z,95381.00
2022-10-30T14:45:33.025Z,95370.81
2022-10-30T14:48:26.805Z,95384.44
2022-10-30T14:51:13.125Z,95378.41
2022-10-30T14:53:42.593Z,95384.22
2022-10-30T14:58:42.060Z,95379.53
2022-10-30T15:01:40.977Z,95381.31
2022-10-30T15:04:24.304Z,95382.59
2022-10-30T15:06:53.752Z,95385.38
2022-10-30T15:09:32.426Z,95383.63
2022-10-30T15:12:36.575Z,95383.41
2022-10-30T15:15:06.397Z,95379.94
2022-10-30T15:17:39.164Z,95385.47
2022-10-30T15:20:14.521Z,95374.94
2022-10-30T15:22:41.601Z,95384.84
2022-10-30T15:25:20.781Z,95390.88
2022-10-30T15:27:51.624Z,95396.66
2022-10-30T15:30:21.375Z,95387.63
2022-10-30T15:32:48.169Z,95381.84
2022-10-30T15:35:26.616Z,95384.66
2022-10-30T15:38:06.897Z,95389.19
2022-10-30T15:40:38.421Z,95382.16
2022-10-30T15:43:12.817Z,95386.19
2022-10-30T15:45:42.532Z,95389.22
2022-10-30T15:48:26.266Z,95388.47
2022-10-30T15:51:17.727Z,95397.25
2022-10-30T15:53:46.537Z,95391.25
2022-10-30T15:56:23.489Z,95401.53
2022-10-30T15:59:23.614Z,95396.50
2022-10-30T16:01:53.257Z,95392.25
2022-10-30T16:04:23.190Z,95400.50
2022-10-30T16:06:59.034Z,95404.50
2022-10-30T16:09:27.220Z,95399.72
2022-10-30T16:11:58.565Z,95400.44
2022-10-30T16:14:28.408Z,95411.72
2022-10-30T16:16:59.087Z,95404.91
2022-10-30T16:19:29.345Z,95405.91
2022-10-30T16:21:57.715Z,95417.94
2022-10-30T16:24:34.956Z,95417.69
2022-10-30T16:27:16.036Z,95415.19
2022-10-30T16:29:43.146Z,95418.19
2022-10-30T16:32:16.159Z,95415.94
2022-10-30T16:34:44.837Z,95418.94
2022-10-30T16:37:22.520Z,95416.91
2022-10-30T16:39:51.503Z,95427.94
2022-10-30T16:42:23.934Z,95427.91
2022-10-30T16:44:50.861Z,95432.13
2022-10-30T16:47:17.450Z,95420.13
2022-10-30T16:49:49.644Z,95427.84
2022-10-30T16:52:17.271Z,95436.84
2022-10-30T16:54:51.151Z,95436.56
2022-10-30T16:57:32.645Z,95435.78
2022-10-30T17:00:00.984Z,95436.97
2022-10-30T17:02:31.164Z,95427.19
2022-10-30T17:05:37.068Z,95444.66
2022-10-30T17:08:05.712Z,95435.38
2022-10-30T17:10:42.040Z,95429.81
2022-10-30T17:13:36.783Z,95426.56
2022-10-30T17:16:26.778Z,95437.56
2022-10-30T17:19:01.975Z,95437.22
2022-10-30T17:21:40.785Z,95438.75
2022-10-30T17:24:20.350Z,95437.91
2022-10-30T17:26:56.324Z,95422.06
2022-10-30T17:29:45.185Z,95435.91
2022-10-30T17:32:20.371Z,95444.59
2022-10-30T17:34:48.345Z,95436.34
2022-10-30T17:37:15.078Z,95430.53
2022-10-30T17:39:41.677Z,95436.78
2022-10-30T17:42:10.217Z,95429.03
2022-10-30T17:44:36.919Z,95426.50
2022-10-30T17:47:18.618Z,95432.09
2022-10-30T17:49:46.245Z,95419.03
2022-10-30T17:52:14.519Z,95434.84
2022-10-30T17:54:42.211Z,95439.78
2022-10-30T17:57:13.425Z,95426.78
2022-10-30T17:59:40.931Z,95425.53
2022-10-30T18:02:19.509Z,95429.25
2022-10-30T18:04:47.559Z,95419.97
2022-10-30T18:07:15.685Z,95417.69
2022-10-30T18:09:42.835Z,95423.94
2022-10-30T18:12:17.195Z,95423.81
2022-10-30T18:14:45.566Z,95418.78
2022-10-30T18:17:12.632Z,95429.97
2022-10-30T18:19:39.387Z,95427.44
2022-10-30T18:22:06.065Z,95428.47
2022-10-30T18:24:32.654Z,95437.16
2022-10-30T18:26:59.393Z,95419.84
2022-10-30T18:29:25.990Z,95431.59
2022-10-30T18:31:52.640Z,95434.25
2022-10-30T18:34:22.231Z,95442.00
2022-10-30T18:36:49.050Z,95428.94
2022-10-30T18:39:15.842Z,95435.34
2022-10-30T18:41:47.069Z,95434.03
2022-10-30T18:44:18.091Z,95431.56
2022-10-30T18:46:45.621Z,95434.41
2022-10-30T18:49:12.697Z,95432.56
2022-10-30T18:51:39.707Z,95428.22
2022-10-30T18:54:15.087Z,95425.69
2022-10-30T18:56:41.721Z,95433.38
2022-10-30T18:59:08.333Z,95438.81
2022-10-30T19:01:35.417Z,95436.50
2022-10-30T19:04:03.092Z,95430.00
2022-10-30T19:06:30.512Z,95441.19
2022-10-30T19:08:57.149Z,95427.63
2022-10-30T19:11:25.804Z,95423.88
2022-10-30T19:13:53.870Z,95446.97
2022-10-30T19:16:21.702Z,95451.34
2022-10-30T19:18:48.861Z,95452.13
2022-10-30T19:21:25.730Z,95446.75
2022-10-30T19:23:53.933Z,95445.44
2022-10-30T19:26:20.603Z,95449.03
2022-10-30T19:28:47.298Z,95444.78
2022-10-30T19:31:16.114Z,95440.06
2022-10-30T19:33:42.966Z,95456.50
2022-10-30T19:36:28.185Z,95452.91
2022-10-30T19:38:55.035Z,95437.97
2022-10-30T19:41:21.857Z,95457.81
2022-10-30T19:43:48.657Z,95461.13
2022-10-30T19:46:15.445Z,95453.38
2022-10-30T19:48:58.988Z,95445.06
2022-10-30T19:51:27.268Z,95433.72
2022-10-30T19:53:54.103Z,95450.53
2022-10-30T19:56:21.299Z,95460.34
2022-10-30T19:58:47.929Z,95461.13
2022-10-30T20:01:14.696Z,95457.16
2022-10-30T20:03:41.449Z,95454.03
2022-10-30T20:06:12.074Z,95456.50
2022-10-30T20:08:38.695Z,95469.53
2022-10-30T20:11:05.547Z,95478.41
2022-10-30T20:13:33.456Z,95483.78
2022-10-30T20:16:02.798Z,95473.38
2022-10-30T20:18:31.975Z,95465.19
2022-10-30T20:21:01.144Z,95477.03
2022-10-30T20:23:28.561Z,95473.41
2022-10-30T20:25:59.801Z,95472.84
2022-10-30T20:28:31.548Z,95477.19
2022-10-30T20:30:58.378Z,95477.19
2022-10-30T20:33:26.028Z,95474.44
2022-10-30T20:35:56.878Z,95473.59
2022-10-30T20:38:29.385Z,95477.66
2022-10-30T20:40:57.370Z,95471.81
2022-10-30T20:43:35.591Z,95481.69
2022-10-30T20:46:04.426Z,95482.38
2022-10-30T20:48:31.157Z,95483.59
2022-10-30T20:51:00.589Z,95478.56
2022-10-30T20:53:28.040Z,95471.41
2022-10-30T20:55:54.960Z,95468.59
2022-10-30T20:58:21.922Z,95473.31
2022-10-30T21:00:48.941Z,95476.63
2022-10-30T21:03:15.789Z,95475.38
2022-10-30T21:05:46.181Z,95467.91
2022-10-30T21:08:14.427Z,95463.09
2022-10-30T21:10:41.486Z,95467.81
2022-10-30T21:13:09.815Z,95454.03
2022-10-30T21:15:44.468Z,95467.47
2022-10-30T21:18:15.579Z,95479.50
2022-10-30T21:20:42.305Z,95461.91
2022-10-30T21:23:09.249Z,95471.09
2022-10-30T21:25:36.412Z,95473.91
2022-10-30T21:28:03.549Z,95465.88
2022-10-30T21:30:30.496Z,95474.31
2022-10-30T21:32:59.186Z,95443.16
2022-10-30T21:35:26.856Z,95462.00
2022-10-30T21:37:53.461Z,95472.59
2022-10-30T21:40:20.027Z,95480.13
2022-10-30T21:42:49.766Z,95475.81
2022-10-30T21:45:16.660Z,95483.94
2022-10-30T21:47:43.236Z,95488.56
2022-10-30T21:50:12.174Z,95474.59
2022-10-30T21:52:39.660Z,95485.63
2022-10-30T21:55:06.519Z,95483.09
2022-10-30T21:57:33.157Z,95486.78
2022-10-30T22:00:01.872Z,95491.59
2022-10-30T22:02:32.702Z,95499.28
2022-10-30T22:04:59.264Z,95502.09
2022-10-30T22:07:25.846Z,95502.09
2022-10-30T22:09:53.538Z,95506.44
2022-10-30T22:12:20.146Z,95498.31
2022-10-30T22:14:46.708Z,95499.81
2022-10-30T22:17:13.318Z,95503.31
2022-10-30T22:19:39.958Z,95506.34
2022-10-30T22:22:07.042Z,95500.94
2022-10-30T22:24:33.650Z,95479.19
2022-10-30T22:27:00.272Z,95493.19
2022-10-30T22:29:26.905Z,95497.09
2022-10-30T22:31:53.527Z,95482.22
2022-10-30T22:34:20.127Z,95470.78
2022-10-30T22:36:46.999Z,95470.09
2022-10-30T22:39:14.461Z,95479.94
2022-10-30T22:41:42.175Z,95470.13
2022-10-30T22:44:13.793Z,95474.94
2022-10-30T22:46:40.901Z,95479.19
2022-10-30T22:49:07.595Z,95455.28
2022-10-30T22:51:36.391Z,95467.19
2022-10-30T22:54:05.314Z,95470.88
2022-10-30T22:56:34.168Z,95465.69
2022-10-30T22:59:02.740Z,95469.25
2022-10-30T23:01:31.756Z,95464.88
2022-10-30T23:04:00.259Z,95464.13
2022-10-30T23:06:28.427Z,95446.09
2022-10-30T23:08:56.798Z,95453.56
2022-10-30T23:11:24.203Z,95451.47
2022-10-30T23:13:55.008Z,95447.84
2022-10-30T23:16:24.584Z,95453.34
2022-10-30T23:18:51.375Z,95449.19
2022-10-30T23:21:21.072Z,95460.91
2022-10-30T23:23:48.493Z,95464.00
2022-10-30T23:26:21.081Z,95460.22
2022-10-30T23:28:50.196Z,95468.34
2022-10-30T23:31:24.501Z,95463.72
2022-10-30T23:33:54.383Z,95459.84
2022-10-30T23:36:21.661Z,95454.16
2022-10-30T23:38:53.167Z,95464.69
2022-10-30T23:41:21.212Z,95470.06
2022-10-30T23:43:48.316Z,95479.09
2022-10-30T23:46:14.875Z,95462.41
2022-10-30T23:48:41.467Z,95467.00
2022-10-30T23:51:08.756Z,95458.16
2022-10-30T23:53:35.715Z,95441.19
2022-10-30T23:56:03.730Z,95447.63
2022-10-30T23:58:30.317Z,95449.59
